sensor_id;sensor_type;location;lat;lon;timestamp;P1;durP1;ratioP1;P2;durP2;ratioP2
60426;SDS011;46274;47.168;27.604;2022-12-31T00:02:59;125.93;;;59.33;;
60426;SDS011;46274;47.168;27.604;2022-12-31T00:09:03;139.03;;;62.27;;
60426;SDS011;46274;47.168;27.604;2022-12-31T00:15:07;103.60;;;45.67;;
60426;SDS011;46274;47.168;27.604;2022-12-31T00:21:09;105.27;;;46.27;;
60426;SDS011;46274;47.168;27.604;2022-12-31T00:27:12;134.70;;;59.87;;
60426;SDS011;46274;47.168;27.604;2022-12-31T00:33:15;91.20;;;43.73;;
60426;SDS011;46274;47.168;27.604;2022-12-31T00:39:19;101.47;;;47.30;;
60426;SDS011;46274;47.168;27.604;2022-12-31T00:45:21;119.70;;;50.30;;
60426;SDS011;46274;47.168;27.604;2022-12-31T00:51:24;104.83;;;45.87;;
60426;SDS011;46274;47.168;27.604;2022-12-31T00:57:31;95.27;;;41.27;;
60426;SDS011;46274;47.168;27.604;2022-12-31T01:03:33;97.37;;;42.43;;
60426;SDS011;46274;47.168;27.604;2022-12-31T01:09:36;100.80;;;45.30;;
60426;SDS011;46274;47.168;27.604;2022-12-31T01:15:38;109.60;;;48.90;;
60426;SDS011;46274;47.168;27.604;2022-12-31T01:21:41;86.03;;;39.70;;
60426;SDS011;46274;47.168;27.604;2022-12-31T01:27:44;88.57;;;40.30;;
60426;SDS011;46274;47.168;27.604;2022-12-31T01:33:47;94.47;;;43.63;;
60426;SDS011;46274;47.168;27.604;2022-12-31T01:39:49;91.70;;;42.83;;
60426;SDS011;46274;47.168;27.604;2022-12-31T01:45:52;76.50;;;33.13;;
60426;SDS011;46274;47.168;27.604;2022-12-31T01:51:57;81.80;;;35.50;;
60426;SDS011;46274;47.168;27.604;2022-12-31T01:58:05;97.00;;;40.03;;
60426;SDS011;46274;47.168;27.604;2022-12-31T02:04:12;98.13;;;42.17;;
60426;SDS011;46274;47.168;27.604;2022-12-31T02:10:16;81.27;;;35.60;;
60426;SDS011;46274;47.168;27.604;2022-12-31T02:22:57;69.93;;;31.67;;
60426;SDS011;46274;47.168;27.604;2022-12-31T02:35:39;71.87;;;33.70;;
60426;SDS011;46274;47.168;27.604;2022-12-31T02:41:49;76.23;;;35.10;;
60426;SDS011;46274;47.168;27.604;2022-12-31T02:48:01;87.43;;;38.57;;
60426;SDS011;46274;47.168;27.604;2022-12-31T03:00:39;80.13;;;35.90;;
60426;SDS011;46274;47.168;27.604;2022-12-31T03:07:13;117.23;;;50.77;;
60426;SDS011;46274;47.168;27.604;2022-12-31T03:13:23;85.13;;;38.60;;
60426;SDS011;46274;47.168;27.604;2022-12-31T03:19:25;58.83;;;28.73;;
60426;SDS011;46274;47.168;27.604;2022-12-31T03:25:46;60.20;;;28.33;;
60426;SDS011;46274;47.168;27.604;2022-12-31T03:31:48;71.07;;;31.40;;
60426;SDS011;46274;47.168;27.604;2022-12-31T03:37:51;81.73;;;37.17;;
60426;SDS011;46274;47.168;27.604;2022-12-31T03:43:54;79.53;;;35.30;;
60426;SDS011;46274;47.168;27.604;2022-12-31T03:49:57;69.47;;;29.43;;
60426;SDS011;46274;47.168;27.604;2022-12-31T03:55:59;64.53;;;27.80;;
60426;SDS011;46274;47.168;27.604;2022-12-31T04:02:02;72.83;;;33.67;;
60426;SDS011;46274;47.168;27.604;2022-12-31T04:08:04;63.87;;;28.33;;
60426;SDS011;46274;47.168;27.604;2022-12-31T04:14:07;75.87;;;35.70;;
60426;SDS011;46274;47.168;27.604;2022-12-31T04:20:10;76.07;;;35.87;;
60426;SDS011;46274;47.168;27.604;2022-12-31T04:26:12;76.43;;;34.53;;
60426;SDS011;46274;47.168;27.604;2022-12-31T04:32:14;96.33;;;43.40;;
60426;SDS011;46274;47.168;27.604;2022-12-31T04:38:16;70.93;;;34.17;;
60426;SDS011;46274;47.168;27.604;2022-12-31T04:44:19;74.07;;;33.40;;
60426;SDS011;46274;47.168;27.604;2022-12-31T04:50:20;83.07;;;40.20;;
60426;SDS011;46274;47.168;27.604;2022-12-31T04:56:22;72.17;;;31.33;;
60426;SDS011;46274;47.168;27.604;2022-12-31T05:02:25;73.20;;;32.00;;
60426;SDS011;46274;47.168;27.604;2022-12-31T05:08:28;67.87;;;32.97;;
60426;SDS011;46274;47.168;27.604;2022-12-31T05:14:31;79.80;;;37.17;;
60426;SDS011;46274;47.168;27.604;2022-12-31T05:20:34;66.53;;;31.93;;
60426;SDS011;46274;47.168;27.604;2022-12-31T05:26:36;71.13;;;32.43;;
60426;SDS011;46274;47.168;27.604;2022-12-31T05:32:38;90.87;;;40.30;;
60426;SDS011;46274;47.168;27.604;2022-12-31T05:38:40;76.23;;;35.50;;
60426;SDS011;46274;47.168;27.604;2022-12-31T05:44:42;72.87;;;32.70;;
60426;SDS011;46274;47.168;27.604;2022-12-31T05:50:45;56.13;;;25.33;;
60426;SDS011;46274;47.168;27.604;2022-12-31T05:56:47;90.20;;;41.63;;
60426;SDS011;46274;47.168;27.604;2022-12-31T06:02:49;85.87;;;40.07;;
60426;SDS011;46274;47.168;27.604;2022-12-31T06:08:51;77.47;;;31.20;;
60426;SDS011;46274;47.168;27.604;2022-12-31T06:14:53;69.23;;;30.30;;
60426;SDS011;46274;47.168;27.604;2022-12-31T06:20:57;54.73;;;26.40;;
60426;SDS011;46274;47.168;27.604;2022-12-31T06:27:00;60.30;;;25.93;;
60426;SDS011;46274;47.168;27.604;2022-12-31T06:33:02;60.33;;;29.03;;
60426;SDS011;46274;47.168;27.604;2022-12-31T06:39:07;87.03;;;40.47;;
60426;SDS011;46274;47.168;27.604;2022-12-31T06:45:09;67.83;;;31.97;;
60426;SDS011;46274;47.168;27.604;2022-12-31T06:51:16;91.57;;;42.70;;
60426;SDS011;46274;47.168;27.604;2022-12-31T06:57:20;90.27;;;38.90;;
60426;SDS011;46274;47.168;27.604;2022-12-31T07:03:42;100.33;;;45.33;;
60426;SDS011;46274;47.168;27.604;2022-12-31T07:10:13;103.30;;;45.47;;
60426;SDS011;46274;47.168;27.604;2022-12-31T07:17:02;95.27;;;43.33;;
60426;SDS011;46274;47.168;27.604;2022-12-31T07:23:09;110.27;;;50.03;;
60426;SDS011;46274;47.168;27.604;2022-12-31T07:29:16;105.70;;;49.87;;
60426;SDS011;46274;47.168;27.604;2022-12-31T07:48:54;99.07;;;45.97;;
60426;SDS011;46274;47.168;27.604;2022-12-31T07:54:56;112.50;;;49.40;;
60426;SDS011;46274;47.168;27.604;2022-12-31T08:00:59;97.37;;;46.57;;
60426;SDS011;46274;47.168;27.604;2022-12-31T08:13:17;116.40;;;53.70;;
60426;SDS011;46274;47.168;27.604;2022-12-31T08:19:24;99.97;;;44.90;;
60426;SDS011;46274;47.168;27.604;2022-12-31T08:25:55;107.03;;;47.47;;
60426;SDS011;46274;47.168;27.604;2022-12-31T08:32:16;117.53;;;48.87;;
60426;SDS011;46274;47.168;27.604;2022-12-31T08:44:59;95.60;;;41.53;;
60426;SDS011;46274;47.168;27.604;2022-12-31T08:51:16;95.70;;;44.20;;
60426;SDS011;46274;47.168;27.604;2022-12-31T09:10:28;70.10;;;33.93;;
60426;SDS011;46274;47.168;27.604;2022-12-31T09:22:44;73.13;;;35.40;;
60426;SDS011;46274;47.168;27.604;2022-12-31T09:35:41;70.07;;;35.47;;
60426;SDS011;46274;47.168;27.604;2022-12-31T09:55:32;84.10;;;40.17;;
60426;SDS011;46274;47.168;27.604;2022-12-31T10:27:09;85.63;;;43.07;;
60426;SDS011;46274;47.168;27.604;2022-12-31T10:33:40;78.17;;;38.40;;
60426;SDS011;46274;47.168;27.604;2022-12-31T10:40:14;79.57;;;38.97;;
60426;SDS011;46274;47.168;27.604;2022-12-31T11:30:31;43.70;;;23.03;;
60426;SDS011;46274;47.168;27.604;2022-12-31T11:36:40;28.33;;;13.50;;
60426;SDS011;46274;47.168;27.604;2022-12-31T11:55:50;9.83;;;5.23;;
60426;SDS011;46274;47.168;27.604;2022-12-31T12:08:18;12.23;;;6.03;;
60426;SDS011;46274;47.168;27.604;2022-12-31T12:20:42;10.63;;;5.93;;
60426;SDS011;46274;47.168;27.604;2022-12-31T12:26:47;10.43;;;5.47;;
60426;SDS011;46274;47.168;27.604;2022-12-31T12:32:57;10.23;;;6.13;;
60426;SDS011;46274;47.168;27.604;2022-12-31T12:39:05;16.40;;;7.43;;
60426;SDS011;46274;47.168;27.604;2022-12-31T12:45:14;14.03;;;6.57;;
60426;SDS011;46274;47.168;27.604;2022-12-31T12:51:23;14.37;;;7.23;;
60426;SDS011;46274;47.168;27.604;2022-12-31T12:57:34;11.10;;;5.97;;
60426;SDS011;46274;47.168;27.604;2022-12-31T13:22:42;33.70;;;15.03;;
60426;SDS011;46274;47.168;27.604;2022-12-31T13:28:51;52.63;;;23.90;;
60426;SDS011;46274;47.168;27.604;2022-12-31T13:34:55;24.60;;;11.97;;
60426;SDS011;46274;47.168;27.604;2022-12-31T13:41:11;16.27;;;8.73;;
60426;SDS011;46274;47.168;27.604;2022-12-31T13:47:31;19.37;;;10.43;;
60426;SDS011;46274;47.168;27.604;2022-12-31T14:00:05;18.80;;;10.10;;
60426;SDS011;46274;47.168;27.604;2022-12-31T14:12:51;18.90;;;9.70;;
60426;SDS011;46274;47.168;27.604;2022-12-31T14:25:39;27.07;;;14.23;;
60426;SDS011;46274;47.168;27.604;2022-12-31T14:38:02;36.17;;;17.73;;
60426;SDS011;46274;47.168;27.604;2022-12-31T14:50:37;31.20;;;16.97;;
60426;SDS011;46274;47.168;27.604;2022-12-31T14:56:43;30.50;;;13.87;;
60426;SDS011;46274;47.168;27.604;2022-12-31T15:02:49;33.93;;;17.87;;
60426;SDS011;46274;47.168;27.604;2022-12-31T15:28:35;85.73;;;31.80;;
60426;SDS011;46274;47.168;27.604;2022-12-31T15:34:40;23.87;;;9.80;;
60426;SDS011;46274;47.168;27.604;2022-12-31T15:40:48;17.57;;;8.10;;
60426;SDS011;46274;47.168;27.604;2022-12-31T15:46:59;20.37;;;8.97;;
60426;SDS011;46274;47.168;27.604;2022-12-31T15:53:24;19.83;;;9.53;;
60426;SDS011;46274;47.168;27.604;2022-12-31T15:59:30;15.63;;;7.40;;
60426;SDS011;46274;47.168;27.604;2022-12-31T16:05:34;13.97;;;7.50;;
60426;SDS011;46274;47.168;27.604;2022-12-31T16:11:47;14.60;;;5.50;;
60426;SDS011;46274;47.168;27.604;2022-12-31T16:18:03;16.17;;;6.43;;
60426;SDS011;46274;47.168;27.604;2022-12-31T16:30:31;15.50;;;6.40;;
60426;SDS011;46274;47.168;27.604;2022-12-31T16:36:37;12.23;;;5.57;;
60426;SDS011;46274;47.168;27.604;2022-12-31T16:42:39;9.80;;;5.17;;
60426;SDS011;46274;47.168;27.604;2022-12-31T16:49:19;10.77;;;5.23;;
60426;SDS011;46274;47.168;27.604;2022-12-31T16:55:24;12.30;;;6.40;;
60426;SDS011;46274;47.168;27.604;2022-12-31T17:01:30;9.60;;;5.10;;
60426;SDS011;46274;47.168;27.604;2022-12-31T17:07:37;27.73;;;12.67;;
60426;SDS011;46274;47.168;27.604;2022-12-31T17:13:41;20.30;;;10.27;;
60426;SDS011;46274;47.168;27.604;2022-12-31T17:19:46;17.97;;;9.37;;
60426;SDS011;46274;47.168;27.604;2022-12-31T17:26:02;18.47;;;10.17;;
60426;SDS011;46274;47.168;27.604;2022-12-31T17:32:35;21.50;;;10.13;;
60426;SDS011;46274;47.168;27.604;2022-12-31T17:38:37;16.13;;;8.00;;
60426;SDS011;46274;47.168;27.604;2022-12-31T17:44:41;13.57;;;6.73;;
60426;SDS011;46274;47.168;27.604;2022-12-31T17:56:53;14.40;;;7.93;;
60426;SDS011;46274;47.168;27.604;2022-12-31T18:02:55;15.97;;;8.10;;
60426;SDS011;46274;47.168;27.604;2022-12-31T18:08:58;9.53;;;5.30;;
60426;SDS011;46274;47.168;27.604;2022-12-31T18:15:00;9.60;;;5.03;;
60426;SDS011;46274;47.168;27.604;2022-12-31T18:21:02;11.50;;;5.27;;
60426;SDS011;46274;47.168;27.604;2022-12-31T18:27:15;19.93;;;7.33;;
60426;SDS011;46274;47.168;27.604;2022-12-31T18:33:19;16.67;;;7.43;;
60426;SDS011;46274;47.168;27.604;2022-12-31T18:39:25;17.63;;;6.07;;
60426;SDS011;46274;47.168;27.604;2022-12-31T18:45:28;21.57;;;10.60;;
60426;SDS011;46274;47.168;27.604;2022-12-31T18:51:30;17.47;;;9.23;;
60426;SDS011;46274;47.168;27.604;2022-12-31T18:57:34;26.23;;;12.77;;
60426;SDS011;46274;47.168;27.604;2022-12-31T19:03:36;32.13;;;12.07;;
60426;SDS011;46274;47.168;27.604;2022-12-31T19:09:42;29.97;;;15.90;;
60426;SDS011;46274;47.168;27.604;2022-12-31T19:15:48;23.80;;;13.27;;
60426;SDS011;46274;47.168;27.604;2022-12-31T19:21:51;24.93;;;13.43;;
60426;SDS011;46274;47.168;27.604;2022-12-31T19:27:54;23.63;;;12.47;;
60426;SDS011;46274;47.168;27.604;2022-12-31T19:33:56;22.37;;;11.47;;
60426;SDS011;46274;47.168;27.604;2022-12-31T19:39:59;22.27;;;11.70;;
60426;SDS011;46274;47.168;27.604;2022-12-31T19:46:03;20.17;;;10.10;;
60426;SDS011;46274;47.168;27.604;2022-12-31T19:52:06;25.30;;;12.43;;
60426;SDS011;46274;47.168;27.604;2022-12-31T19:58:11;24.83;;;12.63;;
60426;SDS011;46274;47.168;27.604;2022-12-31T20:04:20;22.87;;;10.80;;
60426;SDS011;46274;47.168;27.604;2022-12-31T20:10:22;21.10;;;11.63;;
60426;SDS011;46274;47.168;27.604;2022-12-31T20:16:25;22.00;;;11.33;;
60426;SDS011;46274;47.168;27.604;2022-12-31T20:22:27;18.00;;;9.90;;
60426;SDS011;46274;47.168;27.604;2022-12-31T20:28:30;24.43;;;11.20;;
60426;SDS011;46274;47.168;27.604;2022-12-31T20:34:32;21.17;;;11.83;;
60426;SDS011;46274;47.168;27.604;2022-12-31T20:40:35;122.30;;;48.57;;
60426;SDS011;46274;47.168;27.604;2022-12-31T20:46:46;45.33;;;21.63;;
60426;SDS011;46274;47.168;27.604;2022-12-31T20:52:49;33.13;;;15.50;;
60426;SDS011;46274;47.168;27.604;2022-12-31T20:58:51;26.60;;;13.23;;
60426;SDS011;46274;47.168;27.604;2022-12-31T21:04:54;36.60;;;15.83;;
60426;SDS011;46274;47.168;27.604;2022-12-31T21:10:56;32.00;;;15.57;;
60426;SDS011;46274;47.168;27.604;2022-12-31T21:16:59;44.10;;;19.70;;
60426;SDS011;46274;47.168;27.604;2022-12-31T21:23:02;45.10;;;19.17;;
60426;SDS011;46274;47.168;27.604;2022-12-31T21:29:04;30.00;;;14.23;;
60426;SDS011;46274;47.168;27.604;2022-12-31T21:35:07;24.93;;;12.17;;
60426;SDS011;46274;47.168;27.604;2022-12-31T21:41:31;34.47;;;16.43;;
60426;SDS011;46274;47.168;27.604;2022-12-31T21:47:51;31.97;;;16.50;;
60426;SDS011;46274;47.168;27.604;2022-12-31T21:54:12;35.30;;;14.70;;
60426;SDS011;46274;47.168;27.604;2022-12-31T22:00:34;42.60;;;19.60;;
60426;SDS011;46274;47.168;27.604;2022-12-31T22:06:56;36.43;;;20.17;;
60426;SDS011;46274;47.168;27.604;2022-12-31T22:12:58;142.00;;;60.57;;
60426;SDS011;46274;47.168;27.604;2022-12-31T22:19:01;142.47;;;60.77;;
60426;SDS011;46274;47.168;27.604;2022-12-31T22:25:03;84.27;;;35.40;;
60426;SDS011;46274;47.168;27.604;2022-12-31T22:31:11;69.80;;;33.33;;
60426;SDS011;46274;47.168;27.604;2022-12-31T22:37:22;116.10;;;48.27;;
60426;SDS011;46274;47.168;27.604;2022-12-31T22:43:46;75.30;;;35.03;;
60426;SDS011;46274;47.168;27.604;2022-12-31T22:50:00;98.23;;;43.27;;
60426;SDS011;46274;47.168;27.604;2022-12-31T22:56:03;77.23;;;31.37;;
60426;SDS011;46274;47.168;27.604;2022-12-31T23:02:10;73.70;;;29.83;;
60426;SDS011;46274;47.168;27.604;2022-12-31T23:08:13;55.27;;;26.37;;
60426;SDS011;46274;47.168;27.604;2022-12-31T23:14:23;38.60;;;17.50;;
60426;SDS011;46274;47.168;27.604;2022-12-31T23:20:44;54.83;;;25.40;;
60426;SDS011;46274;47.168;27.604;2022-12-31T23:27:05;44.73;;;20.57;;
60426;SDS011;46274;47.168;27.604;2022-12-31T23:33:11;59.03;;;25.87;;
60426;SDS011;46274;47.168;27.604;2022-12-31T23:39:20;67.77;;;29.27;;
60426;SDS011;46274;47.168;27.604;2022-12-31T23:45:23;57.63;;;24.20;;
60426;SDS011;46274;47.168;27.604;2022-12-31T23:51:33;50.13;;;22.13;;
60426;SDS011;46274;47.168;27.604;2022-12-31T23:57:37;38.17;;;19.90;;
